sensor_id;sensor_type;location;lat;lon;timestamp;P1;durP1;ratioP1;P2;durP2;ratioP2
31073;SDS011;17730;53.552;9.940;2022-09-09T00:01:51;83.00;;;36.92;;
31073;SDS011;17730;53.552;9.940;2022-09-09T00:09:45;77.32;;;39.20;;
31073;SDS011;17730;53.552;9.940;2022-09-09T00:12:19;80.50;;;38.83;;
31073;SDS011;17730;53.552;9.940;2022-09-09T00:20:02;89.18;;;42.13;;
31073;SDS011;17730;53.552;9.940;2022-09-09T00:22:37;91.45;;;42.13;;
31073;SDS011;17730;53.552;9.940;2022-09-09T00:25:13;96.05;;;43.83;;
31073;SDS011;17730;53.552;9.940;2022-09-09T00:27:47;90.32;;;42.15;;
31073;SDS011;17730;53.552;9.940;2022-09-09T00:30:19;92.40;;;43.77;;
31073;SDS011;17730;53.552;9.940;2022-09-09T00:32:53;99.20;;;46.28;;
31073;SDS011;17730;53.552;9.940;2022-09-09T00:36:01;99.30;;;46.85;;
31073;SDS011;17730;53.552;9.940;2022-09-09T00:38:38;101.53;;;46.90;;
31073;SDS011;17730;53.552;9.940;2022-09-09T00:41:11;90.88;;;44.08;;
31073;SDS011;17730;53.552;9.940;2022-09-09T00:43:49;101.70;;;46.22;;
31073;SDS011;17730;53.552;9.940;2022-09-09T00:49:43;103.03;;;48.05;;
31073;SDS011;17730;53.552;9.940;2022-09-09T00:55:27;104.20;;;45.30;;
31073;SDS011;17730;53.552;9.940;2022-09-09T00:58:17;106.32;;;46.78;;
31073;SDS011;17730;53.552;9.940;2022-09-09T01:00:44;108.38;;;47.65;;
31073;SDS011;17730;53.552;9.940;2022-09-09T01:17:05;84.07;;;39.85;;
31073;SDS011;17730;53.552;9.940;2022-09-09T01:27:38;87.55;;;39.33;;
31073;SDS011;17730;53.552;9.940;2022-09-09T01:30:10;93.47;;;41.78;;
31073;SDS011;17730;53.552;9.940;2022-09-09T01:37:55;90.95;;;40.60;;
31073;SDS011;17730;53.552;9.940;2022-09-09T01:40:20;93.38;;;41.35;;
31073;SDS011;17730;53.552;9.940;2022-09-09T01:42:47;108.95;;;42.00;;
31073;SDS011;17730;53.552;9.940;2022-09-09T01:45:13;119.43;;;42.17;;
31073;SDS011;17730;53.552;9.940;2022-09-09T01:47:39;109.10;;;44.75;;
31073;SDS011;17730;53.552;9.940;2022-09-09T01:50:05;105.00;;;43.78;;
31073;SDS011;17730;53.552;9.940;2022-09-09T01:52:36;132.32;;;44.80;;
31073;SDS011;17730;53.552;9.940;2022-09-09T01:55:02;109.78;;;43.13;;
31073;SDS011;17730;53.552;9.940;2022-09-09T01:57:33;104.72;;;43.45;;
31073;SDS011;17730;53.552;9.940;2022-09-09T02:00:07;89.53;;;40.55;;
31073;SDS011;17730;53.552;9.940;2022-09-09T02:08:03;160.80;;;43.35;;
31073;SDS011;17730;53.552;9.940;2022-09-09T02:13:34;114.20;;;41.10;;
31073;SDS011;17730;53.552;9.940;2022-09-09T02:19:19;109.20;;;41.88;;
31073;SDS011;17730;53.552;9.940;2022-09-09T02:21:39;102.78;;;41.30;;
31073;SDS011;17730;53.552;9.940;2022-09-09T02:24:07;92.82;;;38.63;;
31073;SDS011;17730;53.552;9.940;2022-09-09T02:26:35;98.60;;;39.03;;
31073;SDS011;17730;53.552;9.940;2022-09-09T02:29:06;96.97;;;37.70;;
31073;SDS011;17730;53.552;9.940;2022-09-09T02:34:04;83.97;;;35.67;;
31073;SDS011;17730;53.552;9.940;2022-09-09T02:36:35;87.87;;;37.83;;
31073;SDS011;17730;53.552;9.940;2022-09-09T02:39:03;98.70;;;40.13;;
31073;SDS011;17730;53.552;9.940;2022-09-09T02:41:33;86.47;;;37.95;;
31073;SDS011;17730;53.552;9.940;2022-09-09T02:44:00;87.65;;;38.83;;
31073;SDS011;17730;53.552;9.940;2022-09-09T02:46:36;88.32;;;37.75;;
31073;SDS011;17730;53.552;9.940;2022-09-09T02:49:09;79.50;;;35.60;;
31073;SDS011;17730;53.552;9.940;2022-09-09T02:56:34;79.60;;;35.50;;
31073;SDS011;17730;53.552;9.940;2022-09-09T02:59:05;81.65;;;36.08;;
31073;SDS011;17730;53.552;9.940;2022-09-09T03:01:31;81.47;;;37.63;;
31073;SDS011;17730;53.552;9.940;2022-09-09T03:03:56;71.82;;;34.72;;
31073;SDS011;17730;53.552;9.940;2022-09-09T03:06:22;76.20;;;35.08;;
31073;SDS011;17730;53.552;9.940;2022-09-09T03:08:48;76.97;;;35.42;;
31073;SDS011;17730;53.552;9.940;2022-09-09T03:11:14;74.03;;;34.47;;
31073;SDS011;17730;53.552;9.940;2022-09-09T03:13:41;73.85;;;35.05;;
31073;SDS011;17730;53.552;9.940;2022-09-09T03:16:06;74.80;;;35.22;;
31073;SDS011;17730;53.552;9.940;2022-09-09T03:18:32;71.53;;;34.35;;
31073;SDS011;17730;53.552;9.940;2022-09-09T03:20:59;71.00;;;33.88;;
31073;SDS011;17730;53.552;9.940;2022-09-09T03:23:25;71.07;;;33.55;;
31073;SDS011;17730;53.552;9.940;2022-09-09T03:25:51;70.07;;;34.22;;
31073;SDS011;17730;53.552;9.940;2022-09-09T03:28:17;71.80;;;34.67;;
31073;SDS011;17730;53.552;9.940;2022-09-09T03:30:43;71.80;;;34.22;;
31073;SDS011;17730;53.552;9.940;2022-09-09T03:33:09;66.13;;;33.45;;
31073;SDS011;17730;53.552;9.940;2022-09-09T03:35:34;68.93;;;33.53;;
31073;SDS011;17730;53.552;9.940;2022-09-09T03:38:01;68.10;;;34.03;;
31073;SDS011;17730;53.552;9.940;2022-09-09T03:40:26;75.75;;;32.35;;
31073;SDS011;17730;53.552;9.940;2022-09-09T03:42:52;69.03;;;33.05;;
31073;SDS011;17730;53.552;9.940;2022-09-09T03:45:17;68.80;;;32.30;;
31073;SDS011;17730;53.552;9.940;2022-09-09T03:47:43;69.18;;;31.63;;
31073;SDS011;17730;53.552;9.940;2022-09-09T03:50:09;58.92;;;30.75;;
31073;SDS011;17730;53.552;9.940;2022-09-09T03:52:39;66.85;;;29.50;;
31073;SDS011;17730;53.552;9.940;2022-09-09T03:55:06;68.65;;;32.28;;
31073;SDS011;17730;53.552;9.940;2022-09-09T03:57:32;59.90;;;29.38;;
31073;SDS011;17730;53.552;9.940;2022-09-09T04:00:00;64.13;;;31.65;;
31073;SDS011;17730;53.552;9.940;2022-09-09T04:02:28;62.03;;;31.33;;
31073;SDS011;17730;53.552;9.940;2022-09-09T04:04:53;65.57;;;31.27;;
31073;SDS011;17730;53.552;9.940;2022-09-09T04:07:19;62.10;;;31.42;;
31073;SDS011;17730;53.552;9.940;2022-09-09T04:09:44;59.47;;;29.80;;
31073;SDS011;17730;53.552;9.940;2022-09-09T04:12:10;60.03;;;30.30;;
31073;SDS011;17730;53.552;9.940;2022-09-09T04:14:38;68.50;;;32.70;;
31073;SDS011;17730;53.552;9.940;2022-09-09T04:17:03;62.92;;;29.88;;
31073;SDS011;17730;53.552;9.940;2022-09-09T04:19:31;56.75;;;30.42;;
31073;SDS011;17730;53.552;9.940;2022-09-09T04:21:57;62.33;;;29.70;;
31073;SDS011;17730;53.552;9.940;2022-09-09T04:24:22;55.47;;;28.83;;
31073;SDS011;17730;53.552;9.940;2022-09-09T04:26:48;57.08;;;29.98;;
31073;SDS011;17730;53.552;9.940;2022-09-09T04:29:14;55.50;;;27.90;;
31073;SDS011;17730;53.552;9.940;2022-09-09T04:31:39;59.58;;;29.15;;
31073;SDS011;17730;53.552;9.940;2022-09-09T04:34:07;72.43;;;30.48;;
31073;SDS011;17730;53.552;9.940;2022-09-09T04:36:33;55.03;;;28.70;;
31073;SDS011;17730;53.552;9.940;2022-09-09T04:38:59;63.15;;;29.20;;
31073;SDS011;17730;53.552;9.940;2022-09-09T04:41:26;57.17;;;29.50;;
31073;SDS011;17730;53.552;9.940;2022-09-09T04:43:52;58.20;;;29.95;;
31073;SDS011;17730;53.552;9.940;2022-09-09T04:46:18;53.75;;;27.85;;
31073;SDS011;17730;53.552;9.940;2022-09-09T04:48:44;51.33;;;26.83;;
31073;SDS011;17730;53.552;9.940;2022-09-09T04:51:12;58.40;;;27.33;;
31073;SDS011;17730;53.552;9.940;2022-09-09T04:53:38;53.33;;;27.20;;
31073;SDS011;17730;53.552;9.940;2022-09-09T04:56:09;52.83;;;26.17;;
31073;SDS011;17730;53.552;9.940;2022-09-09T04:58:37;50.03;;;25.67;;
31073;SDS011;17730;53.552;9.940;2022-09-09T05:01:08;45.00;;;24.75;;
31073;SDS011;17730;53.552;9.940;2022-09-09T05:06:09;40.85;;;23.10;;
31073;SDS011;17730;53.552;9.940;2022-09-09T05:08:37;45.80;;;22.98;;
31073;SDS011;17730;53.552;9.940;2022-09-09T05:11:11;34.40;;;21.73;;
31073;SDS011;17730;53.552;9.940;2022-09-09T05:13:45;41.47;;;21.35;;
31073;SDS011;17730;53.552;9.940;2022-09-09T05:16:11;36.45;;;20.75;;
31073;SDS011;17730;53.552;9.940;2022-09-09T05:18:38;36.40;;;21.38;;
31073;SDS011;17730;53.552;9.940;2022-09-09T05:21:04;34.38;;;20.95;;
31073;SDS011;17730;53.552;9.940;2022-09-09T05:23:31;33.83;;;20.55;;
31073;SDS011;17730;53.552;9.940;2022-09-09T05:25:58;31.95;;;19.27;;
31073;SDS011;17730;53.552;9.940;2022-09-09T05:28:25;33.75;;;19.05;;
31073;SDS011;17730;53.552;9.940;2022-09-09T05:31:01;33.92;;;19.95;;
31073;SDS011;17730;53.552;9.940;2022-09-09T05:33:29;35.13;;;18.88;;
31073;SDS011;17730;53.552;9.940;2022-09-09T05:35:59;30.65;;;18.98;;
31073;SDS011;17730;53.552;9.940;2022-09-09T05:38:35;30.35;;;18.48;;
31073;SDS011;17730;53.552;9.940;2022-09-09T05:41:02;29.58;;;19.15;;
31073;SDS011;17730;53.552;9.940;2022-09-09T05:43:28;27.55;;;18.65;;
31073;SDS011;17730;53.552;9.940;2022-09-09T05:46:04;28.60;;;17.63;;
31073;SDS011;17730;53.552;9.940;2022-09-09T05:48:33;28.33;;;18.33;;
31073;SDS011;17730;53.552;9.940;2022-09-09T05:51:00;31.23;;;19.05;;
31073;SDS011;17730;53.552;9.940;2022-09-09T05:53:27;30.42;;;18.15;;
31073;SDS011;17730;53.552;9.940;2022-09-09T05:56:03;30.42;;;17.98;;
31073;SDS011;17730;53.552;9.940;2022-09-09T05:58:31;28.17;;;17.20;;
31073;SDS011;17730;53.552;9.940;2022-09-09T06:01:00;27.00;;;17.13;;
31073;SDS011;17730;53.552;9.940;2022-09-09T06:03:34;22.42;;;15.15;;
31073;SDS011;17730;53.552;9.940;2022-09-09T06:06:02;28.00;;;17.25;;
31073;SDS011;17730;53.552;9.940;2022-09-09T06:08:33;22.75;;;14.57;;
31073;SDS011;17730;53.552;9.940;2022-09-09T06:13:30;24.10;;;15.13;;
31073;SDS011;17730;53.552;9.940;2022-09-09T06:15:56;22.42;;;14.00;;
31073;SDS011;17730;53.552;9.940;2022-09-09T06:18:23;20.38;;;13.25;;
31073;SDS011;17730;53.552;9.940;2022-09-09T06:20:56;15.32;;;11.88;;
31073;SDS011;17730;53.552;9.940;2022-09-09T06:23:23;20.52;;;13.27;;
31073;SDS011;17730;53.552;9.940;2022-09-09T06:25:50;21.83;;;12.38;;
31073;SDS011;17730;53.552;9.940;2022-09-09T06:28:16;17.70;;;12.38;;
31073;SDS011;17730;53.552;9.940;2022-09-09T06:30:42;22.27;;;12.90;;
31073;SDS011;17730;53.552;9.940;2022-09-09T06:33:07;25.63;;;12.70;;
31073;SDS011;17730;53.552;9.940;2022-09-09T06:35:34;17.38;;;11.23;;
31073;SDS011;17730;53.552;9.940;2022-09-09T06:38:00;19.15;;;12.55;;
31073;SDS011;17730;53.552;9.940;2022-09-09T06:40:25;21.30;;;11.15;;
31073;SDS011;17730;53.552;9.940;2022-09-09T06:42:51;20.58;;;11.68;;
31073;SDS011;17730;53.552;9.940;2022-09-09T06:45:16;15.48;;;10.32;;
31073;SDS011;17730;53.552;9.940;2022-09-09T06:47:42;19.67;;;11.13;;
31073;SDS011;17730;53.552;9.940;2022-09-09T06:50:08;17.73;;;9.40;;
31073;SDS011;17730;53.552;9.940;2022-09-09T06:52:35;13.65;;;8.65;;
31073;SDS011;17730;53.552;9.940;2022-09-09T06:55:00;12.10;;;9.00;;
31073;SDS011;17730;53.552;9.940;2022-09-09T06:57:26;12.68;;;9.00;;
31073;SDS011;17730;53.552;9.940;2022-09-09T06:59:51;16.70;;;8.82;;
31073;SDS011;17730;53.552;9.940;2022-09-09T07:02:17;16.15;;;9.30;;
31073;SDS011;17730;53.552;9.940;2022-09-09T07:04:43;12.27;;;7.93;;
31073;SDS011;17730;53.552;9.940;2022-09-09T07:07:09;14.35;;;7.38;;
31073;SDS011;17730;53.552;9.940;2022-09-09T07:09:37;10.82;;;6.85;;
31073;SDS011;17730;53.552;9.940;2022-09-09T07:12:02;13.27;;;6.25;;
31073;SDS011;17730;53.552;9.940;2022-09-09T07:14:31;13.63;;;7.45;;
31073;SDS011;17730;53.552;9.940;2022-09-09T07:16:58;12.93;;;6.80;;
31073;SDS011;17730;53.552;9.940;2022-09-09T07:19:25;10.77;;;6.45;;
31073;SDS011;17730;53.552;9.940;2022-09-09T07:21:50;12.48;;;5.78;;
31073;SDS011;17730;53.552;9.940;2022-09-09T07:24:16;16.20;;;6.07;;
31073;SDS011;17730;53.552;9.940;2022-09-09T07:26:42;19.58;;;7.05;;
31073;SDS011;17730;53.552;9.940;2022-09-09T07:29:08;18.08;;;4.63;;
31073;SDS011;17730;53.552;9.940;2022-09-09T07:31:35;5.68;;;4.15;;
31073;SDS011;17730;53.552;9.940;2022-09-09T07:34:03;10.02;;;5.78;;
31073;SDS011;17730;53.552;9.940;2022-09-09T07:36:30;12.88;;;5.50;;
31073;SDS011;17730;53.552;9.940;2022-09-09T07:39:08;14.32;;;4.97;;
31073;SDS011;17730;53.552;9.940;2022-09-09T07:41:45;10.32;;;5.15;;
31073;SDS011;17730;53.552;9.940;2022-09-09T07:44:16;6.82;;;4.20;;
31073;SDS011;17730;53.552;9.940;2022-09-09T07:46:43;8.60;;;4.50;;
31073;SDS011;17730;53.552;9.940;2022-09-09T07:49:10;14.30;;;5.45;;
31073;SDS011;17730;53.552;9.940;2022-09-09T07:51:37;11.07;;;4.93;;
31073;SDS011;17730;53.552;9.940;2022-09-09T07:54:06;9.63;;;5.97;;
31073;SDS011;17730;53.552;9.940;2022-09-09T07:56:34;310.42;;;199.65;;
31073;SDS011;17730;53.552;9.940;2022-09-09T07:59:01;36.88;;;31.25;;
31073;SDS011;17730;53.552;9.940;2022-09-09T08:01:36;12.15;;;4.68;;
31073;SDS011;17730;53.552;9.940;2022-09-09T08:04:07;9.80;;;5.00;;
31073;SDS011;17730;53.552;9.940;2022-09-09T08:06:36;8.15;;;4.05;;
31073;SDS011;17730;53.552;9.940;2022-09-09T08:09:03;11.50;;;3.75;;
31073;SDS011;17730;53.552;9.940;2022-09-09T08:11:29;9.25;;;4.45;;
31073;SDS011;17730;53.552;9.940;2022-09-09T08:13:55;8.77;;;3.63;;
31073;SDS011;17730;53.552;9.940;2022-09-09T08:16:22;7.72;;;4.10;;
31073;SDS011;17730;53.552;9.940;2022-09-09T08:18:50;10.38;;;4.05;;
31073;SDS011;17730;53.552;9.940;2022-09-09T08:21:18;7.20;;;3.30;;
31073;SDS011;17730;53.552;9.940;2022-09-09T08:23:45;7.97;;;3.80;;
31073;SDS011;17730;53.552;9.940;2022-09-09T08:26:22;8.05;;;3.40;;
31073;SDS011;17730;53.552;9.940;2022-09-09T08:28:50;7.82;;;2.90;;
31073;SDS011;17730;53.552;9.940;2022-09-09T08:31:19;4.25;;;2.70;;
31073;SDS011;17730;53.552;9.940;2022-09-09T08:33:46;9.85;;;3.95;;
31073;SDS011;17730;53.552;9.940;2022-09-09T08:36:13;15.20;;;11.82;;
31073;SDS011;17730;53.552;9.940;2022-09-09T08:38:41;6.22;;;3.80;;
31073;SDS011;17730;53.552;9.940;2022-09-09T08:44:06;9.30;;;3.95;;
31073;SDS011;17730;53.552;9.940;2022-09-09T08:49:18;7.28;;;3.70;;
31073;SDS011;17730;53.552;9.940;2022-09-09T08:52:25;7.43;;;3.25;;
31073;SDS011;17730;53.552;9.940;2022-09-09T08:58:12;9.43;;;3.10;;
31073;SDS011;17730;53.552;9.940;2022-09-09T09:11:49;4.38;;;2.55;;
31073;SDS011;17730;53.552;9.940;2022-09-09T09:14:22;4.38;;;2.33;;
31073;SDS011;17730;53.552;9.940;2022-09-09T09:16:53;9.20;;;2.85;;
31073;SDS011;17730;53.552;9.940;2022-09-09T09:19:23;8.05;;;2.50;;
31073;SDS011;17730;53.552;9.940;2022-09-09T09:24:18;7.50;;;3.30;;
31073;SDS011;17730;53.552;9.940;2022-09-09T09:27:13;10.30;;;2.88;;
31073;SDS011;17730;53.552;9.940;2022-09-09T09:29:41;8.63;;;2.58;;
31073;SDS011;17730;53.552;9.940;2022-09-09T09:32:10;6.75;;;2.20;;
31073;SDS011;17730;53.552;9.940;2022-09-09T09:34:40;3.50;;;1.70;;
31073;SDS011;17730;53.552;9.940;2022-09-09T09:37:12;3.72;;;1.95;;
31073;SDS011;17730;53.552;9.940;2022-09-09T09:39:45;4.80;;;1.60;;
31073;SDS011;17730;53.552;9.940;2022-09-09T09:42:12;2.40;;;1.70;;
31073;SDS011;17730;53.552;9.940;2022-09-09T09:44:39;6.25;;;3.30;;
31073;SDS011;17730;53.552;9.940;2022-09-09T09:47:10;6.80;;;1.73;;
31073;SDS011;17730;53.552;9.940;2022-09-09T09:49:56;3.97;;;2.03;;
31073;SDS011;17730;53.552;9.940;2022-09-09T09:52:25;4.13;;;2.10;;
31073;SDS011;17730;53.552;9.940;2022-09-09T09:54:53;3.00;;;1.60;;
31073;SDS011;17730;53.552;9.940;2022-09-09T09:57:27;3.65;;;2.03;;
31073;SDS011;17730;53.552;9.940;2022-09-09T10:00:03;5.35;;;2.47;;
31073;SDS011;17730;53.552;9.940;2022-09-09T10:02:38;7.88;;;4.00;;
31073;SDS011;17730;53.552;9.940;2022-09-09T10:05:21;8.18;;;3.47;;
31073;SDS011;17730;53.552;9.940;2022-09-09T10:08:11;7.82;;;2.95;;
31073;SDS011;17730;53.552;9.940;2022-09-09T10:10:42;11.20;;;3.88;;
31073;SDS011;17730;53.552;9.940;2022-09-09T10:13:32;5.30;;;2.45;;
31073;SDS011;17730;53.552;9.940;2022-09-09T10:19:00;7.63;;;2.50;;
31073;SDS011;17730;53.552;9.940;2022-09-09T10:27:33;7.10;;;2.17;;
31073;SDS011;17730;53.552;9.940;2022-09-09T10:30:09;5.07;;;1.85;;
31073;SDS011;17730;53.552;9.940;2022-09-09T10:37:59;4.55;;;1.95;;
31073;SDS011;17730;53.552;9.940;2022-09-09T10:57:41;3.90;;;2.05;;
31073;SDS011;17730;53.552;9.940;2022-09-09T11:00:17;8.38;;;2.20;;
31073;SDS011;17730;53.552;9.940;2022-09-09T11:02:47;4.25;;;2.05;;
31073;SDS011;17730;53.552;9.940;2022-09-09T11:05:24;4.15;;;1.50;;
31073;SDS011;17730;53.552;9.940;2022-09-09T11:07:58;6.32;;;2.20;;
31073;SDS011;17730;53.552;9.940;2022-09-09T11:13:05;4.97;;;1.92;;
31073;SDS011;17730;53.552;9.940;2022-09-09T11:15:45;11.25;;;1.73;;
31073;SDS011;17730;53.552;9.940;2022-09-09T11:18:25;6.15;;;3.20;;
31073;SDS011;17730;53.552;9.940;2022-09-09T11:20:55;8.50;;;2.20;;
31073;SDS011;17730;53.552;9.940;2022-09-09T11:23:27;5.32;;;2.03;;
31073;SDS011;17730;53.552;9.940;2022-09-09T11:26:02;4.28;;;1.60;;
31073;SDS011;17730;53.552;9.940;2022-09-09T11:28:42;7.57;;;1.85;;
31073;SDS011;17730;53.552;9.940;2022-09-09T11:31:35;7.53;;;2.28;;
31073;SDS011;17730;53.552;9.940;2022-09-09T11:42:23;8.40;;;2.67;;
31073;SDS011;17730;53.552;9.940;2022-09-09T11:44:49;6.25;;;2.25;;
31073;SDS011;17730;53.552;9.940;2022-09-09T11:47:29;7.15;;;1.83;;
31073;SDS011;17730;53.552;9.940;2022-09-09T11:52:40;5.63;;;1.80;;
31073;SDS011;17730;53.552;9.940;2022-09-09T11:55:28;9.30;;;2.25;;
31073;SDS011;17730;53.552;9.940;2022-09-09T11:58:02;9.93;;;2.30;;
31073;SDS011;17730;53.552;9.940;2022-09-09T12:00:34;5.82;;;2.25;;
31073;SDS011;17730;53.552;9.940;2022-09-09T12:03:02;5.72;;;1.70;;
31073;SDS011;17730;53.552;9.940;2022-09-09T12:05:38;9.13;;;2.30;;
31073;SDS011;17730;53.552;9.940;2022-09-09T12:08:09;8.57;;;2.20;;
31073;SDS011;17730;53.552;9.940;2022-09-09T12:10:38;6.63;;;2.17;;
31073;SDS011;17730;53.552;9.940;2022-09-09T12:13:24;6.72;;;2.58;;
31073;SDS011;17730;53.552;9.940;2022-09-09T12:15:52;5.10;;;2.50;;
31073;SDS011;17730;53.552;9.940;2022-09-09T12:23:59;6.72;;;2.03;;
31073;SDS011;17730;53.552;9.940;2022-09-09T12:37:02;3.75;;;1.95;;
31073;SDS011;17730;53.552;9.940;2022-09-09T12:39:55;4.53;;;1.70;;
31073;SDS011;17730;53.552;9.940;2022-09-09T12:42:23;4.95;;;1.83;;
31073;SDS011;17730;53.552;9.940;2022-09-09T12:44:51;5.43;;;2.30;;
31073;SDS011;17730;53.552;9.940;2022-09-09T12:47:25;8.48;;;2.10;;
31073;SDS011;17730;53.552;9.940;2022-09-09T12:49:57;6.70;;;2.10;;
31073;SDS011;17730;53.552;9.940;2022-09-09T12:52:28;9.38;;;2.15;;
31073;SDS011;17730;53.552;9.940;2022-09-09T12:54:58;5.97;;;2.45;;
31073;SDS011;17730;53.552;9.940;2022-09-09T12:57:33;6.60;;;2.83;;
31073;SDS011;17730;53.552;9.940;2022-09-09T13:00:05;6.45;;;2.30;;
31073;SDS011;17730;53.552;9.940;2022-09-09T13:03:02;9.82;;;2.65;;
31073;SDS011;17730;53.552;9.940;2022-09-09T13:05:41;6.90;;;2.55;;
31073;SDS011;17730;53.552;9.940;2022-09-09T13:08:11;4.57;;;2.50;;
31073;SDS011;17730;53.552;9.940;2022-09-09T13:10:39;7.78;;;2.50;;
31073;SDS011;17730;53.552;9.940;2022-09-09T13:13:20;8.05;;;2.72;;
31073;SDS011;17730;53.552;9.940;2022-09-09T13:15:49;6.10;;;3.15;;
31073;SDS011;17730;53.552;9.940;2022-09-09T13:18:24;5.63;;;2.85;;
31073;SDS011;17730;53.552;9.940;2022-09-09T13:20:53;7.75;;;2.80;;
31073;SDS011;17730;53.552;9.940;2022-09-09T13:23:21;20.23;;;5.25;;
31073;SDS011;17730;53.552;9.940;2022-09-09T13:25:57;18.75;;;3.83;;
31073;SDS011;17730;53.552;9.940;2022-09-09T13:28:25;13.55;;;3.60;;
31073;SDS011;17730;53.552;9.940;2022-09-09T13:31:19;9.00;;;2.92;;
31073;SDS011;17730;53.552;9.940;2022-09-09T13:33:49;6.63;;;2.33;;
31073;SDS011;17730;53.552;9.940;2022-09-09T13:36:14;13.13;;;3.63;;
31073;SDS011;17730;53.552;9.940;2022-09-09T13:38:40;9.43;;;3.13;;
31073;SDS011;17730;53.552;9.940;2022-09-09T13:41:35;7.53;;;3.40;;
31073;SDS011;17730;53.552;9.940;2022-09-09T13:44:14;10.50;;;4.15;;
31073;SDS011;17730;53.552;9.940;2022-09-09T13:46:47;11.95;;;3.63;;
31073;SDS011;17730;53.552;9.940;2022-09-09T13:49:24;13.85;;;4.78;;
31073;SDS011;17730;53.552;9.940;2022-09-09T13:52:02;10.90;;;3.10;;
31073;SDS011;17730;53.552;9.940;2022-09-09T13:54:35;10.10;;;2.83;;
31073;SDS011;17730;53.552;9.940;2022-09-09T13:57:00;9.02;;;2.85;;
31073;SDS011;17730;53.552;9.940;2022-09-09T13:59:26;8.82;;;3.13;;
31073;SDS011;17730;53.552;9.940;2022-09-09T14:01:52;6.75;;;3.03;;
31073;SDS011;17730;53.552;9.940;2022-09-09T14:04:18;8.45;;;3.00;;
31073;SDS011;17730;53.552;9.940;2022-09-09T14:06:46;7.43;;;3.63;;
31073;SDS011;17730;53.552;9.940;2022-09-09T14:09:13;8.98;;;3.63;;
31073;SDS011;17730;53.552;9.940;2022-09-09T14:11:40;13.88;;;4.15;;
31073;SDS011;17730;53.552;9.940;2022-09-09T14:14:07;13.00;;;4.28;;
31073;SDS011;17730;53.552;9.940;2022-09-09T14:16:33;10.10;;;4.40;;
31073;SDS011;17730;53.552;9.940;2022-09-09T14:18:59;10.50;;;4.90;;
31073;SDS011;17730;53.552;9.940;2022-09-09T14:21:25;11.57;;;4.40;;
31073;SDS011;17730;53.552;9.940;2022-09-09T14:23:51;9.70;;;4.30;;
31073;SDS011;17730;53.552;9.940;2022-09-09T14:26:23;12.80;;;3.80;;
31073;SDS011;17730;53.552;9.940;2022-09-09T14:28:49;6.05;;;3.42;;
31073;SDS011;17730;53.552;9.940;2022-09-09T14:31:15;6.43;;;3.15;;
31073;SDS011;17730;53.552;9.940;2022-09-09T14:33:42;5.47;;;2.53;;
31073;SDS011;17730;53.552;9.940;2022-09-09T14:36:09;7.30;;;2.88;;
31073;SDS011;17730;53.552;9.940;2022-09-09T14:38:36;7.32;;;2.67;;
31073;SDS011;17730;53.552;9.940;2022-09-09T14:41:06;6.40;;;1.85;;
31073;SDS011;17730;53.552;9.940;2022-09-09T14:43:35;7.18;;;2.55;;
31073;SDS011;17730;53.552;9.940;2022-09-09T14:46:05;5.72;;;1.77;;
31073;SDS011;17730;53.552;9.940;2022-09-09T14:48:32;9.40;;;2.75;;
31073;SDS011;17730;53.552;9.940;2022-09-09T14:51:04;3.30;;;2.00;;
31073;SDS011;17730;53.552;9.940;2022-09-09T14:53:42;7.38;;;3.13;;
31073;SDS011;17730;53.552;9.940;2022-09-09T14:56:15;6.00;;;3.20;;
31073;SDS011;17730;53.552;9.940;2022-09-09T14:58:43;6.03;;;2.40;;
31073;SDS011;17730;53.552;9.940;2022-09-09T15:01:10;6.28;;;2.30;;
31073;SDS011;17730;53.552;9.940;2022-09-09T15:03:38;7.97;;;2.97;;
31073;SDS011;17730;53.552;9.940;2022-09-09T15:06:06;7.30;;;2.70;;
31073;SDS011;17730;53.552;9.940;2022-09-09T15:08:37;5.75;;;2.55;;
31073;SDS011;17730;53.552;9.940;2022-09-09T15:11:04;5.93;;;2.92;;
31073;SDS011;17730;53.552;9.940;2022-09-09T15:13:32;5.55;;;2.40;;
31073;SDS011;17730;53.552;9.940;2022-09-09T15:16:05;7.93;;;3.15;;
31073;SDS011;17730;53.552;9.940;2022-09-09T15:18:32;8.52;;;2.85;;
31073;SDS011;17730;53.552;9.940;2022-09-09T15:20:59;7.95;;;2.50;;
31073;SDS011;17730;53.552;9.940;2022-09-09T15:23:26;8.63;;;3.08;;
31073;SDS011;17730;53.552;9.940;2022-09-09T15:25:52;7.05;;;2.65;;
31073;SDS011;17730;53.552;9.940;2022-09-09T15:28:20;6.03;;;2.20;;
31073;SDS011;17730;53.552;9.940;2022-09-09T15:30:49;5.03;;;2.63;;
31073;SDS011;17730;53.552;9.940;2022-09-09T15:33:17;5.43;;;2.45;;
31073;SDS011;17730;53.552;9.940;2022-09-09T15:35:43;7.50;;;3.05;;
31073;SDS011;17730;53.552;9.940;2022-09-09T15:38:09;8.02;;;2.75;;
31073;SDS011;17730;53.552;9.940;2022-09-09T15:40:35;7.70;;;3.40;;
31073;SDS011;17730;53.552;9.940;2022-09-09T15:43:00;8.10;;;3.47;;
31073;SDS011;17730;53.552;9.940;2022-09-09T15:45:28;9.05;;;3.10;;
31073;SDS011;17730;53.552;9.940;2022-09-09T15:47:57;6.00;;;2.95;;
31073;SDS011;17730;53.552;9.940;2022-09-09T15:50:23;4.90;;;2.35;;
31073;SDS011;17730;53.552;9.940;2022-09-09T15:52:48;5.25;;;2.17;;
31073;SDS011;17730;53.552;9.940;2022-09-09T15:55:14;9.10;;;2.10;;
31073;SDS011;17730;53.552;9.940;2022-09-09T15:57:40;4.85;;;1.20;;
31073;SDS011;17730;53.552;9.940;2022-09-09T16:00:05;5.80;;;1.98;;
31073;SDS011;17730;53.552;9.940;2022-09-09T16:02:32;7.90;;;2.30;;
31073;SDS011;17730;53.552;9.940;2022-09-09T16:04:58;3.28;;;1.75;;
31073;SDS011;17730;53.552;9.940;2022-09-09T16:07:23;2.33;;;1.42;;
31073;SDS011;17730;53.552;9.940;2022-09-09T16:09:49;3.03;;;1.38;;
31073;SDS011;17730;53.552;9.940;2022-09-09T16:12:17;3.35;;;1.35;;
31073;SDS011;17730;53.552;9.940;2022-09-09T16:14:43;2.28;;;1.38;;
31073;SDS011;17730;53.552;9.940;2022-09-09T16:17:10;4.03;;;1.30;;
31073;SDS011;17730;53.552;9.940;2022-09-09T16:19:36;1.95;;;1.20;;
31073;SDS011;17730;53.552;9.940;2022-09-09T16:22:02;2.38;;;1.27;;
31073;SDS011;17730;53.552;9.940;2022-09-09T16:24:29;2.70;;;1.35;;
31073;SDS011;17730;53.552;9.940;2022-09-09T16:26:54;4.28;;;1.40;;
31073;SDS011;17730;53.552;9.940;2022-09-09T16:29:20;1.83;;;1.25;;
31073;SDS011;17730;53.552;9.940;2022-09-09T16:31:47;3.28;;;1.35;;
31073;SDS011;17730;53.552;9.940;2022-09-09T16:34:13;7.78;;;2.90;;
31073;SDS011;17730;53.552;9.940;2022-09-09T16:36:40;3.85;;;2.00;;
31073;SDS011;17730;53.552;9.940;2022-09-09T16:39:08;3.35;;;2.20;;
31073;SDS011;17730;53.552;9.940;2022-09-09T16:41:35;3.78;;;1.48;;
31073;SDS011;17730;53.552;9.940;2022-09-09T16:44:03;3.03;;;1.55;;
31073;SDS011;17730;53.552;9.940;2022-09-09T16:46:31;4.97;;;1.90;;
31073;SDS011;17730;53.552;9.940;2022-09-09T16:49:00;4.65;;;1.75;;
31073;SDS011;17730;53.552;9.940;2022-09-09T16:51:27;3.50;;;2.10;;
31073;SDS011;17730;53.552;9.940;2022-09-09T16:53:58;4.38;;;1.58;;
31073;SDS011;17730;53.552;9.940;2022-09-09T16:56:27;1.92;;;1.30;;
31073;SDS011;17730;53.552;9.940;2022-09-09T16:58:55;3.47;;;1.20;;
31073;SDS011;17730;53.552;9.940;2022-09-09T17:01:23;2.75;;;1.20;;
31073;SDS011;17730;53.552;9.940;2022-09-09T17:03:56;6.93;;;1.48;;
31073;SDS011;17730;53.552;9.940;2022-09-09T17:06:23;3.63;;;1.30;;
31073;SDS011;17730;53.552;9.940;2022-09-09T17:08:58;5.15;;;1.88;;
31073;SDS011;17730;53.552;9.940;2022-09-09T17:11:26;2.55;;;1.65;;
31073;SDS011;17730;53.552;9.940;2022-09-09T17:13:53;4.32;;;2.15;;
31073;SDS011;17730;53.552;9.940;2022-09-09T17:16:20;3.83;;;2.10;;
31073;SDS011;17730;53.552;9.940;2022-09-09T17:18:48;2.70;;;1.35;;
31073;SDS011;17730;53.552;9.940;2022-09-09T17:21:15;4.22;;;1.70;;
31073;SDS011;17730;53.552;9.940;2022-09-09T17:23:43;7.93;;;2.20;;